Time,TemperatureF,DewpointF,PressureIn,WindDirection,WindDirectionDegrees,WindSpeedMPH,WindSpeedGustMPH,Humidity,HourlyPrecipIn,Conditions,Clouds,dailyrainin,SoftwareType,DateUTC
2013-02-27 00:27:00,52.2,40.1,30.04,SSW,203,0.0,0.0,63,0.00,,FEW,0.00,WUHU21623XXSP,2013-02-26 22:27:00,
2013-02-27 01:27:00,51.4,40.1,30.03,SSE,158,0.0,0.0,65,0.00,,FEW,0.00,WUHU21623XXSP,2013-02-26 23:27:00,
2013-02-27 02:27:00,50.7,41.0,30.03,South,180,0.0,0.0,69,0.00,,FEW,0.00,WUHU21623XXSP,2013-02-27 00:27:00,
2013-02-27 03:27:00,50.7,41.4,30.01,South,180,0.0,0.0,70,0.00,,FEW,0.00,WUHU21623XXSP,2013-02-27 01:27:00,
2013-02-27 04:27:00,50.4,41.8,30.00,SSE,158,0.0,0.0,72,0.00,,FEW,0.00,WUHU21623XXSP,2013-02-27 02:27:00,
2013-02-27 05:27:00,50.9,42.3,30.00,SE,135,0.0,0.0,72,0.00,,FEW,0.00,WUHU21623XXSP,2013-02-27 03:27:00,
2013-02-27 06:27:00,52.2,41.7,29.99,South,180,0.0,0.0,67,0.00,,FEW,0.00,WUHU21623XXSP,2013-02-27 04:27:00,
2013-02-27 07:27:00,52.3,41.4,30.00,NNW,338,0.0,0.0,66,0.00,,FEW,0.00,WUHU21623XXSP,2013-02-27 05:27:00,
2013-02-27 08:27:00,52.7,42.2,30.00,WNW,293,2.4,2.4,67,0.00,,FEW,0.00,WUHU21623XXSP,2013-02-27 06:27:00,
2013-02-27 09:07:00,54.9,42.7,30.00,NW,315,0.0,0.0,63,0.00,,FEW,0.00,WUHU21623XXSP,2013-02-27 07:07:00,
2013-02-27 09:12:00,55.0,42.3,30.01,WNW,292,0.0,6.6,62,0.00,,FEW,0.00,WUHU21623XXSP,2013-02-27 07:12:00,
2013-02-27 09:17:00,55.0,42.3,30.01,WSW,247,0.0,6.6,62,0.00,,FEW,0.00,WUHU21623XXSP,2013-02-27 07:17:00,
2013-02-27 09:22:00,55.0,42.3,30.01,SSW,202,4.9,7.6,62,0.00,,FEW,0.00,WUHU21623XXSP,2013-02-27 07:22:00,
2013-02-27 09:27:00,55.2,42.5,30.01,SW,225,2.8,8.4,62,0.00,,FEW,0.00,WUHU21623XXSP,2013-02-27 07:27:00,
2013-02-27 09:32:00,55.8,43.5,30.01,SSW,202,4.0,8.4,63,0.00,,FEW,0.00,WUHU21623XXSP,2013-02-27 07:32:00,
2013-02-27 09:37:00,56.1,43.0,30.00,NNE,22,0.0,8.1,61,0.00,,FEW,0.00,WUHU21623XXSP,2013-02-27 07:37:00,
2013-02-27 09:42:00,55.2,41.7,30.00,WNW,292,0.0,5.9,60,0.00,,FEW,0.00,WUHU21623XXSP,2013-02-27 07:42:00,
2013-02-27 09:47:00,55.0,41.5,30.00,WSW,247,0.0,5.9,60,0.00,,FEW,0.00,WUHU21623XXSP,2013-02-27 07:47:00,
2013-02-27 09:52:00,55.0,41.0,30.00,NW,315,0.0,6.6,59,0.00,,FEW,0.00,WUHU21623XXSP,2013-02-27 07:52:00,
2013-02-27 09:57:00,55.8,42.7,30.01,NW,315,0.0,6.6,61,0.00,,SCT,0.00,WUHU21623XXSP,2013-02-27 07:57:00,
2013-02-27 10:02:00,55.6,42.9,30.01,WNW,292,3.2,6.4,62,0.00,,SCT,0.00,WUHU21623XXSP,2013-02-27 08:02:00,
2013-02-27 10:07:00,55.8,43.1,30.01,WSW,247,0.0,6.6,62,0.00,,SCT,0.00,WUHU21623XXSP,2013-02-27 08:07:00,
2013-02-27 10:12:00,55.9,42.8,30.01,WNW,292,0.0,6.6,61,0.00,,SCT,0.00,WUHU21623XXSP,2013-02-27 08:12:00,
2013-02-27 10:17:00,56.1,42.5,30.01,West,270,1.4,9.8,60,0.00,,BKN,0.00,WUHU21623XXSP,2013-02-27 08:17:00,
2013-02-27 10:22:00,55.8,41.3,30.01,South,180,4.9,9.8,58,0.00,,BKN,0.00,WUHU21623XXSP,2013-02-27 08:22:00,
2013-02-27 10:27:00,55.6,41.1,30.01,West,270,0.0,6.9,58,0.00,,BKN,0.00,WUHU21623XXSP,2013-02-27 08:27:00,
2013-02-27 10:32:00,55.2,41.7,30.01,SSW,202,4.2,5.9,60,0.00,,BKN,0.00,WUHU21623XXSP,2013-02-27 08:32:00,
2013-02-27 10:37:00,55.4,41.0,30.00,SE,135,0.0,6.2,58,0.00,,BKN,0.00,WUHU21623XXSP,2013-02-27 08:37:00,
2013-02-27 10:42:00,55.6,40.7,30.01,SW,225,13.1,13.1,57,0.00,,BKN,0.00,WUHU21623XXSP,2013-02-27 08:42:00,
2013-02-27 10:47:00,55.8,40.9,30.01,NNE,22,2.2,13.1,57,0.00,,BKN,0.00,WUHU21623XXSP,2013-02-27 08:47:00,
2013-02-27 10:52:00,55.6,40.7,30.00,West,270,4.2,14.1,57,0.00,,BKN,0.00,WUHU21623XXSP,2013-02-27 08:52:00,
2013-02-27 10:57:00,55.6,40.2,30.01,West,270,4.0,14.1,56,0.00,,BKN,0.00,WUHU21623XXSP,2013-02-27 08:57:00,
2013-02-27 11:02:00,55.4,40.0,30.01,WNW,292,0.0,17.9,56,0.00,,BKN,0.00,WUHU21623XXSP,2013-02-27 09:02:00,
2013-02-27 11:07:00,55.0,39.7,30.00,WSW,247,4.4,17.9,56,0.00,,BKN,0.00,WUHU21623XXSP,2013-02-27 09:07:00,
2013-02-27 11:12:00,55.2,39.8,30.01,SW,225,5.9,11.3,56,0.00,,BKN,0.00,WUHU21623XXSP,2013-02-27 09:12:00,
2013-02-27 11:17:00,55.6,40.2,30.00,WNW,292,0.0,11.3,56,0.00,,BKN,0.00,WUHU21623XXSP,2013-02-27 09:17:00,
2013-02-27 11:22:00,56.1,40.7,30.00,NNW,337,0.0,11.3,56,0.00,,BKN,0.00,WUHU21623XXSP,2013-02-27 09:22:00,
2013-02-27 11:27:00,56.7,39.3,30.00,NW,315,0.0,10.8,52,0.00,,BKN,0.00,WUHU21623XXSP,2013-02-27 09:27:00,
2013-02-27 11:32:00,57.2,39.2,30.00,WNW,292,0.0,10.8,51,0.00,,BKN,0.00,WUHU21623XXSP,2013-02-27 09:32:00,
2013-02-27 11:37:00,57.6,39.1,30.00,WNW,292,0.0,12.8,50,0.00,,BKN,0.00,WUHU21623XXSP,2013-02-27 09:37:00,
2013-02-27 11:42:00,57.6,38.0,30.00,NW,315,1.0,12.8,48,0.00,,BKN,0.00,WUHU21623XXSP,2013-02-27 09:42:00,
2013-02-27 11:47:00,57.6,38.6,30.00,SW,225,6.2,15.3,49,0.00,,BKN,0.00,WUHU21623XXSP,2013-02-27 09:47:00,
2013-02-27 11:52:00,56.8,36.7,30.00,NW,315,3.0,15.3,47,0.00,,BKN,0.00,WUHU21623XXSP,2013-02-27 09:52:00,
2013-02-27 11:57:00,56.7,36.6,30.00,South,180,6.6,13.1,47,0.00,,BKN,0.00,WUHU21623XXSP,2013-02-27 09:57:00,
2013-02-27 12:02:00,57.0,38.0,30.00,NNW,337,6.9,14.5,49,0.00,,SCT,0.00,WUHU21623XXSP,2013-02-27 10:02:00,
2013-02-27 12:07:00,57.4,37.8,29.99,SW,225,1.0,15.9,48,0.00,,SCT,0.00,WUHU21623XXSP,2013-02-27 10:07:00,
2013-02-27 12:12:00,57.4,37.3,29.99,West,270,1.8,15.9,47,0.00,,SCT,0.00,WUHU21623XXSP,2013-02-27 10:12:00,
2013-02-27 12:17:00,57.6,37.5,29.99,NNW,337,1.2,14.3,47,0.00,,SCT,0.00,WUHU21623XXSP,2013-02-27 10:17:00,
2013-02-27 12:22:00,57.9,37.7,29.99,WSW,247,6.2,15.7,47,0.00,,SCT,0.00,WUHU21623XXSP,2013-02-27 10:22:00,
2013-02-27 12:27:00,58.1,36.8,29.99,ENE,67,1.0,15.7,45,0.00,,SCT,0.00,WUHU21623XXSP,2013-02-27 10:27:00,
2013-02-27 12:32:00,58.3,37.0,29.99,South,180,1.4,10.6,45,0.00,,SCT,0.00,WUHU21623XXSP,2013-02-27 10:32:00,
2013-02-27 12:37:00,57.9,36.6,29.98,WNW,292,3.2,15.3,45,0.00,,SCT,0.00,WUHU21623XXSP,2013-02-27 10:37:00,
2013-02-27 12:43:00,58.1,35.6,29.99,NW,315,2.2,15.3,43,0.00,,SCT,0.00,WUHU21623XXSP,2013-02-27 10:43:00,
2013-02-27 12:48:00,57.9,36.0,29.98,SSE,157,0.0,20.1,44,0.00,,SCT,0.00,WUHU21623XXSP,2013-02-27 10:48:00,
2013-02-27 12:53:00,58.1,35.6,29.98,South,180,4.7,20.1,43,0.00,,SCT,0.00,WUHU21623XXSP,2013-02-27 10:53:00,
2013-02-27 12:58:00,58.3,35.2,29.98,WSW,247,2.8,15.0,42,0.00,,SCT,0.00,WUHU21623XXSP,2013-02-27 10:58:00,
2013-02-27 13:02:00,58.5,35.3,29.98,WSW,247,6.9,13.1,42,0.00,,SCT,0.00,WUHU21623XXSP,2013-02-27 11:02:00,
2013-02-27 13:07:00,58.1,35.0,29.98,NW,315,0.0,13.1,42,0.00,,SCT,0.00,WUHU21623XXSP,2013-02-27 11:07:00,
2013-02-27 13:12:00,58.6,34.8,29.98,WSW,247,4.0,11.6,41,0.00,,SCT,0.00,WUHU21623XXSP,2013-02-27 11:12:00,
2013-02-27 13:17:00,58.8,33.7,29.98,NW,315,3.7,20.5,39,0.00,,SCT,0.00,WUHU21623XXSP,2013-02-27 11:17:00,
2013-02-27 13:22:00,58.5,33.4,29.98,WSW,247,11.8,20.5,39,0.00,,SCT,0.00,WUHU21623XXSP,2013-02-27 11:22:00,
2013-02-27 13:27:00,58.1,35.0,29.98,SSW,202,0.0,18.5,42,0.00,,SCT,0.00,WUHU21623XXSP,2013-02-27 11:27:00,
2013-02-27 13:32:00,57.9,34.8,29.98,West,270,14.5,14.5,42,0.00,,SCT,0.00,WUHU21623XXSP,2013-02-27 11:32:00,
2013-02-27 13:37:00,57.7,35.2,29.98,North,0,1.0,14.5,43,0.00,,SCT,0.00,WUHU21623XXSP,2013-02-27 11:37:00,
2013-02-27 13:42:00,57.6,35.1,29.98,WNW,292,1.0,18.5,43,0.00,,SCT,0.00,WUHU21623XXSP,2013-02-27 11:42:00,
2013-02-27 13:47:00,57.7,35.8,29.97,North,0,0.0,18.5,44,0.00,,SCT,0.00,WUHU21623XXSP,2013-02-27 11:47:00,
2013-02-27 13:53:00,57.6,35.1,29.97,SW,225,4.2,15.3,43,0.00,,SCT,0.00,WUHU21623XXSP,2013-02-27 11:53:00,
2013-02-27 13:57:00,57.6,35.7,29.97,SW,225,8.4,15.3,44,0.00,,SCT,0.00,WUHU21623XXSP,2013-02-27 11:57:00,
2013-02-27 14:02:00,57.9,36.6,29.97,North,0,0.0,14.1,45,0.00,,SCT,0.00,WUHU21623XXSP,2013-02-27 12:02:00,
2013-02-27 14:08:00,58.1,35.6,29.97,South,180,0.0,10.6,43,0.00,,SCT,0.00,WUHU21623XXSP,2013-02-27 12:08:00,
2013-02-27 14:13:00,57.9,34.8,29.97,SSE,157,0.0,10.6,42,0.00,,SCT,0.00,WUHU21623XXSP,2013-02-27 12:13:00,
2013-02-27 14:18:00,57.7,35.2,29.97,West,270,13.1,15.3,43,0.00,,SCT,0.00,WUHU21623XXSP,2013-02-27 12:18:00,
2013-02-27 14:23:00,57.9,35.4,29.97,West,270,4.2,22.7,43,0.00,,SCT,0.00,WUHU21623XXSP,2013-02-27 12:23:00,
2013-02-27 14:28:00,57.9,34.8,29.97,SSE,157,0.0,22.7,42,0.00,,SCT,0.00,WUHU21623XXSP,2013-02-27 12:28:00,
2013-02-27 14:33:00,57.9,34.2,29.96,NW,315,0.0,7.6,41,0.00,,SCT,0.00,WUHU21623XXSP,2013-02-27 12:33:00,
2013-02-27 14:37:00,57.9,34.2,29.96,WNW,292,4.9,11.1,41,0.00,,SCT,0.00,WUHU21623XXSP,2013-02-27 12:37:00,
2013-02-27 14:42:00,58.1,35.0,29.96,WSW,247,1.8,17.9,42,0.00,,SCT,0.00,WUHU21623XXSP,2013-02-27 12:42:00,
2013-02-27 14:47:00,58.1,34.4,29.96,WNW,292,0.0,17.9,41,0.00,,SCT,0.00,WUHU21623XXSP,2013-02-27 12:47:00,
2013-02-27 14:52:00,58.1,33.7,29.96,NW,315,0.0,17.7,40,0.00,,SCT,0.00,WUHU21623XXSP,2013-02-27 12:52:00,
2013-02-27 14:57:00,58.3,33.9,29.95,SW,225,2.8,17.7,40,0.00,,SCT,0.00,WUHU21623XXSP,2013-02-27 12:57:00,
2013-02-27 15:03:00,58.5,34.1,29.96,WSW,247,4.4,13.1,40,0.00,,SCT,0.00,WUHU21623XXSP,2013-02-27 13:03:00,
2013-02-27 15:08:00,58.5,34.1,29.95,South,180,0.0,13.1,40,0.00,,SCT,0.00,WUHU21623XXSP,2013-02-27 13:08:00,
2013-02-27 15:13:00,58.6,34.2,29.95,SSE,157,0.0,11.6,40,0.00,,SCT,0.00,WUHU21623XXSP,2013-02-27 13:13:00,
2013-02-27 15:18:00,59.2,35.4,29.95,NNW,337,7.4,11.6,41,0.00,,SCT,0.00,WUHU21623XXSP,2013-02-27 13:18:00,
2013-02-27 15:23:00,59.2,34.7,29.95,WNW,292,4.2,12.3,40,0.00,,SCT,0.00,WUHU21623XXSP,2013-02-27 13:23:00,
2013-02-27 15:28:00,59.4,34.9,29.95,North,0,1.2,12.3,40,0.00,,SCT,0.00,WUHU21623XXSP,2013-02-27 13:28:00,
2013-02-27 15:33:00,59.4,34.9,29.95,NW,315,2.0,10.1,40,0.00,,SCT,0.00,WUHU21623XXSP,2013-02-27 13:33:00,
2013-02-27 15:38:00,59.7,37.0,29.95,West,270,1.8,18.7,43,0.00,,SCT,0.00,WUHU21623XXSP,2013-02-27 13:38:00,
2013-02-27 15:43:00,59.4,36.8,29.95,WSW,247,5.4,18.7,43,0.00,,SCT,0.00,WUHU21623XXSP,2013-02-27 13:43:00,
2013-02-27 15:48:00,59.0,36.4,29.95,WNW,292,3.7,15.5,43,0.00,,SCT,0.00,WUHU21623XXSP,2013-02-27 13:48:00,
2013-02-27 15:53:00,58.6,36.0,29.95,NNW,337,4.9,13.3,43,0.00,,SCT,0.00,WUHU21623XXSP,2013-02-27 13:53:00,
2013-02-27 15:58:00,58.6,36.0,29.95,WSW,247,0.0,13.1,43,0.00,,SCT,0.00,WUHU21623XXSP,2013-02-27 13:58:00,
2013-02-27 16:03:00,58.6,34.8,29.95,NW,315,4.0,13.1,41,0.00,,SCT,0.00,WUHU21623XXSP,2013-02-27 14:03:00,
2013-02-27 16:08:00,59.0,35.2,29.94,NNW,337,2.0,13.1,41,0.00,,SCT,0.00,WUHU21623XXSP,2013-02-27 14:08:00,
2013-02-27 16:13:00,58.8,36.2,29.94,NW,315,3.2,15.0,43,0.00,,SCT,0.00,WUHU21623XXSP,2013-02-27 14:13:00,
2013-02-27 16:18:00,58.6,37.2,29.95,NW,315,10.3,15.0,45,0.00,,SCT,0.00,WUHU21623XXSP,2013-02-27 14:18:00,
2013-02-27 16:23:00,58.6,37.8,29.95,NNE,22,1.8,12.5,46,0.00,,SCT,0.00,WUHU21623XXSP,2013-02-27 14:23:00,
2013-02-27 16:28:00,58.5,38.8,29.95,North,0,0.0,12.5,48,0.00,,SCT,0.00,WUHU21623XXSP,2013-02-27 14:28:00,
2013-02-27 16:33:00,58.5,37.7,29.95,WSW,247,5.2,12.8,46,0.00,,SCT,0.00,WUHU21623XXSP,2013-02-27 14:33:00,
2013-02-27 16:38:00,58.1,36.8,29.95,SSE,157,2.8,12.8,45,0.00,,SCT,0.00,WUHU21623XXSP,2013-02-27 14:38:00,
2013-02-27 16:43:00,58.1,36.8,29.94,WNW,292,0.0,13.3,45,0.00,,SCT,0.00,WUHU21623XXSP,2013-02-27 14:43:00,
2013-02-27 16:48:00,58.1,36.2,29.94,NW,315,2.2,13.3,44,0.00,,SCT,0.00,WUHU21623XXSP,2013-02-27 14:48:00,
2013-02-27 16:53:00,58.1,35.6,29.94,West,270,0.0,14.3,43,0.00,,SCT,0.00,WUHU21623XXSP,2013-02-27 14:53:00,
2013-02-27 16:58:00,58.1,35.0,29.94,NNE,22,0.0,14.3,42,0.00,,SCT,0.00,WUHU21623XXSP,2013-02-27 14:58:00,
2013-02-27 17:03:00,58.1,36.2,29.95,North,0,0.0,7.4,44,0.00,,SCT,0.00,WUHU21623XXSP,2013-02-27 15:03:00,
2013-02-27 17:08:00,57.6,35.7,29.95,SSE,157,0.0,9.8,44,0.00,,SCT,0.00,WUHU21623XXSP,2013-02-27 15:08:00,
2013-02-27 17:13:00,57.4,35.6,29.95,NNW,337,3.2,10.1,44,0.00,,SCT,0.00,WUHU21623XXSP,2013-02-27 15:13:00,
2013-02-27 17:18:00,57.4,35.6,29.95,NW,315,2.4,16.5,44,0.00,,SCT,0.00,WUHU21623XXSP,2013-02-27 15:18:00,
2013-02-27 17:23:00,57.4,35.6,29.95,North,0,3.4,16.5,44,0.00,,SCT,0.00,WUHU21623XXSP,2013-02-27 15:23:00,
2013-02-27 17:28:00,57.6,36.3,29.95,SW,225,0.0,6.9,45,0.00,,SCT,0.00,WUHU21623XXSP,2013-02-27 15:28:00,
2013-02-27 17:33:00,57.4,36.1,29.95,NE,45,1.4,6.9,45,0.00,,SCT,0.00,WUHU21623XXSP,2013-02-27 15:33:00,
2013-02-27 17:38:00,57.4,36.1,29.96,North,0,0.0,9.6,45,0.00,,SCT,0.00,WUHU21623XXSP,2013-02-27 15:38:00,
2013-02-27 17:43:00,57.0,35.2,29.96,West,270,1.8,11.1,44,0.00,,SCT,0.00,WUHU21623XXSP,2013-02-27 15:43:00,
2013-02-27 17:48:00,57.0,34.6,29.96,SSE,157,3.7,11.1,43,0.00,,SCT,0.00,WUHU21623XXSP,2013-02-27 15:48:00,
2013-02-27 17:53:00,56.8,34.4,29.96,SW,225,11.8,11.8,43,0.00,,SCT,0.00,WUHU21623XXSP,2013-02-27 15:53:00,
2013-02-27 17:58:00,56.8,35.0,29.96,West,270,2.8,11.8,44,0.00,,SCT,0.00,WUHU21623XXSP,2013-02-27 15:58:00,
2013-02-27 18:03:00,56.5,35.3,29.96,SW,225,0.0,11.8,45,0.00,,SCT,0.00,WUHU21623XXSP,2013-02-27 16:03:00,
2013-02-27 18:08:00,56.3,35.1,29.96,WNW,292,0.8,9.4,45,0.00,,SCT,0.00,WUHU21623XXSP,2013-02-27 16:08:00,
2013-02-27 18:13:00,56.3,35.7,29.96,NW,315,8.9,11.3,46,0.00,,SCT,0.00,WUHU21623XXSP,2013-02-27 16:13:00,
2013-02-27 18:18:00,56.1,35.5,29.97,SW,225,2.4,18.5,46,0.00,,SCT,0.00,WUHU21623XXSP,2013-02-27 16:18:00,
2013-02-27 18:23:00,56.1,35.5,29.97,West,270,10.6,18.5,46,0.00,,SCT,0.00,WUHU21623XXSP,2013-02-27 16:23:00,
2013-02-27 18:28:00,55.9,35.3,29.97,NNW,337,7.9,11.3,46,0.00,,SCT,0.00,WUHU21623XXSP,2013-02-27 16:28:00,
2013-02-27 18:33:00,55.8,35.8,29.97,WSW,247,4.0,11.3,47,0.00,,SCT,0.00,WUHU21623XXSP,2013-02-27 16:33:00,
2013-02-27 18:38:00,55.6,36.2,29.97,SW,225,1.2,9.6,48,0.00,,SCT,0.00,WUHU21623XXSP,2013-02-27 16:38:00,
2013-02-27 18:43:00,55.4,36.0,29.97,West,270,1.4,13.8,48,0.00,,SCT,0.00,WUHU21623XXSP,2013-02-27 16:43:00,
2013-02-27 18:48:00,55.0,36.2,29.98,NW,315,6.2,13.8,49,0.00,,SCT,0.00,WUHU21623XXSP,2013-02-27 16:48:00,
2013-02-27 18:53:00,55.0,36.7,29.98,WNW,292,2.2,13.3,50,0.00,,SCT,0.00,WUHU21623XXSP,2013-02-27 16:53:00,
2013-02-27 18:58:00,55.0,37.2,29.98,NNW,337,2.8,14.5,51,0.00,,SCT,0.00,WUHU21623XXSP,2013-02-27 16:58:00,
2013-02-27 19:03:00,54.9,37.6,29.98,WSW,247,0.0,14.5,52,0.00,,SCT,0.00,WUHU21623XXSP,2013-02-27 17:03:00,
2013-02-27 19:08:00,54.9,38.1,29.98,WNW,292,6.9,9.4,53,0.00,,SCT,0.00,WUHU21623XXSP,2013-02-27 17:08:00,
2013-02-27 19:13:00,54.9,38.1,29.98,West,270,1.0,9.4,53,0.00,,SCT,0.00,WUHU21623XXSP,2013-02-27 17:13:00,
2013-02-27 19:18:00,54.9,38.6,29.98,West,270,0.0,9.4,54,0.00,,SCT,0.00,WUHU21623XXSP,2013-02-27 17:18:00,
2013-02-27 19:23:00,54.7,38.4,29.98,NW,315,2.0,9.4,54,0.00,,SCT,0.00,WUHU21623XXSP,2013-02-27 17:23:00,
2013-02-27 19:28:00,54.5,38.2,29.98,WNW,292,0.0,4.7,54,0.00,,SCT,0.00,WUHU21623XXSP,2013-02-27 17:28:00,
2013-02-27 19:33:00,54.5,38.7,29.98,NNW,337,0.0,5.9,55,0.00,,SCT,0.00,WUHU21623XXSP,2013-02-27 17:33:00,
2013-02-27 19:38:00,54.5,38.7,29.98,North,0,1.2,8.1,55,0.00,,SCT,0.00,WUHU21623XXSP,2013-02-27 17:38:00,
2013-02-27 19:43:00,54.5,38.7,29.98,NW,315,0.0,8.1,55,0.00,,SCT,0.00,WUHU21623XXSP,2013-02-27 17:43:00,
2013-02-27 19:48:00,54.5,38.7,29.99,NNW,337,5.2,10.1,55,0.00,,SCT,0.00,WUHU21623XXSP,2013-02-27 17:48:00,
2013-02-27 19:53:00,54.5,38.7,29.99,NW,315,7.4,10.8,55,0.00,,SCT,0.00,WUHU21623XXSP,2013-02-27 17:53:00,
2013-02-27 19:58:00,54.5,38.7,29.99,West,270,8.9,10.8,55,0.00,,SCT,0.00,WUHU21623XXSP,2013-02-27 17:58:00,
2013-02-27 20:03:00,54.5,39.2,30.00,NW,315,9.4,11.6,56,0.00,,SCT,0.00,WUHU21623XXSP,2013-02-27 18:03:00,
2013-02-27 20:08:00,54.3,39.5,30.00,SSW,202,0.0,11.6,57,0.00,,SCT,0.00,WUHU21623XXSP,2013-02-27 18:08:00,
2013-02-27 20:13:00,54.3,39.5,30.00,SW,225,0.0,6.6,57,0.00,,SCT,0.00,WUHU21623XXSP,2013-02-27 18:13:00,
2013-02-27 20:18:00,54.0,39.2,30.00,WSW,247,1.8,2.4,57,0.00,,SCT,0.00,WUHU21623XXSP,2013-02-27 18:18:00,
2013-02-27 20:23:00,54.0,39.2,30.00,West,270,0.0,3.0,57,0.00,,SCT,0.00,WUHU21623XXSP,2013-02-27 18:23:00,
2013-02-27 20:28:00,54.0,39.2,30.01,WSW,247,0.0,3.0,57,0.00,,SCT,0.00,WUHU21623XXSP,2013-02-27 18:28:00,
2013-02-27 20:33:00,54.0,39.6,30.01,West,270,0.0,5.2,58,0.00,,SCT,0.00,WUHU21623XXSP,2013-02-27 18:33:00,
2013-02-27 20:38:00,53.8,39.5,30.01,West,270,0.0,5.9,58,0.00,,SCT,0.00,WUHU21623XXSP,2013-02-27 18:38:00,
2013-02-27 20:43:00,54.0,39.6,30.01,SSW,202,0.0,5.9,58,0.00,,SCT,0.00,WUHU21623XXSP,2013-02-27 18:43:00,
2013-02-27 20:48:00,53.8,39.5,30.01,North,0,0.0,4.9,58,0.00,,SCT,0.00,WUHU21623XXSP,2013-02-27 18:48:00,
2013-02-27 20:53:00,53.8,39.5,30.02,North,0,0.0,4.0,58,0.00,,SCT,0.00,WUHU21623XXSP,2013-02-27 18:53:00,
2013-02-27 20:58:00,53.6,39.3,30.01,NW,315,0.0,3.4,58,0.00,,SCT,0.00,WUHU21623XXSP,2013-02-27 18:58:00,
2013-02-27 21:03:00,53.6,39.3,30.01,North,0,0.0,2.4,58,0.00,,SCT,0.00,WUHU21623XXSP,2013-02-27 19:03:00,
2013-02-27 21:08:00,53.2,38.9,30.02,North,0,0.0,0.0,58,0.00,,SCT,0.00,WUHU21623XXSP,2013-02-27 19:08:00,
2013-02-27 21:13:00,53.2,38.9,30.02,North,0,0.0,0.0,58,0.00,,SCT,0.00,WUHU21623XXSP,2013-02-27 19:13:00,
2013-02-27 21:18:00,53.1,38.8,30.02,NNW,337,0.0,1.4,58,0.00,,SCT,0.00,WUHU21623XXSP,2013-02-27 19:18:00,
2013-02-27 21:23:00,53.1,39.2,30.03,NNW,337,0.0,1.4,59,0.00,,SCT,0.00,WUHU21623XXSP,2013-02-27 19:23:00,
2013-02-27 21:28:00,52.7,38.9,30.03,NNE,22,0.0,0.8,59,0.00,,SCT,0.00,WUHU21623XXSP,2013-02-27 19:28:00,
2013-02-27 21:33:00,52.5,39.1,30.03,NNE,22,0.0,0.0,60,0.00,,SCT,0.00,WUHU21623XXSP,2013-02-27 19:33:00,
2013-02-27 21:38:00,52.3,38.9,30.03,NE,45,0.0,0.0,60,0.00,,SCT,0.00,WUHU21623XXSP,2013-02-27 19:38:00,
2013-02-27 21:43:00,52.2,38.8,30.03,ESE,112,0.0,0.0,60,0.00,,SCT,0.00,WUHU21623XXSP,2013-02-27 19:43:00,
2013-02-27 21:48:00,52.0,38.6,30.04,NNW,337,0.0,0.0,60,0.00,,SCT,0.00,WUHU21623XXSP,2013-02-27 19:48:00,
2013-02-27 21:53:00,51.8,38.9,30.04,North,0,0.0,0.0,61,0.00,,SCT,0.00,WUHU21623XXSP,2013-02-27 19:53:00,
2013-02-27 21:58:00,51.6,38.7,30.04,North,0,0.0,0.0,61,0.00,,SCT,0.00,WUHU21623XXSP,2013-02-27 19:58:00,
2013-02-27 22:03:00,51.6,39.1,30.04,NNE,22,0.0,0.0,62,0.00,,SCT,0.00,WUHU21623XXSP,2013-02-27 20:03:00,
2013-02-27 22:08:00,51.4,38.9,30.04,NNE,22,0.0,0.0,62,0.00,,SCT,0.00,WUHU21623XXSP,2013-02-27 20:08:00,
2013-02-27 22:13:00,51.4,38.9,30.04,North,0,0.0,0.0,62,0.00,,SCT,0.00,WUHU21623XXSP,2013-02-27 20:13:00,
2013-02-27 22:18:00,51.3,38.8,30.05,NW,315,0.0,0.0,62,0.00,,SCT,0.00,WUHU21623XXSP,2013-02-27 20:18:00,
2013-02-27 22:23:00,51.3,39.2,30.05,NNW,337,0.0,2.4,63,0.00,,SCT,0.00,WUHU21623XXSP,2013-02-27 20:23:00,
2013-02-27 22:28:00,51.3,39.2,30.05,NNE,22,2.0,2.4,63,0.00,,SCT,0.00,WUHU21623XXSP,2013-02-27 20:28:00,
2013-02-27 22:33:00,51.3,39.2,30.05,NW,315,2.8,6.9,63,0.00,,SCT,0.00,WUHU21623XXSP,2013-02-27 20:33:00,
2013-02-27 22:38:00,51.8,39.7,30.06,WNW,292,3.4,13.3,63,0.00,,BKN,0.00,WUHU21623XXSP,2013-02-27 20:38:00,
2013-02-27 22:43:00,52.2,39.7,30.06,North,0,6.2,13.3,62,0.00,,BKN,0.00,WUHU21623XXSP,2013-02-27 20:43:00,
2013-02-27 22:48:00,52.0,39.1,30.06,North,0,4.2,10.1,61,0.00,,BKN,0.00,WUHU21623XXSP,2013-02-27 20:48:00,
2013-02-27 22:53:00,52.0,38.6,30.06,North,0,2.0,13.1,60,0.00,,BKN,0.00,WUHU21623XXSP,2013-02-27 20:53:00,
2013-02-27 23:27:00,51.6,37.8,30.05,NNW,338,0.0,0.0,59,0.00,,BKN,0.00,WUHU21623XXSP,2013-02-27 21:27:00,